Huey, Illinois
Current Conditions -  °F | °C
As of 8:35 AM on Friday 28 Nov 2014 (Local Time) from KENL Reporting Station
Clear Clear  
Wind Chill: 20°   Ceiling: Unl
Heat Index: 29°   Visibility: 7mi
Dew Point: 24°   Wind: 10mph
Humidity: 80%   Direction: 170°S
Pressure: 30.29"   Gusts: 16mph
Location:  38.6°N, 89.29°W
Report Text: KENL 281435Z AUTO 17009G14KT 7SM CLR M01/M04 A3029 RMK AO2 T10141045
Loading
Personal Weather Stations






























Interactive Weather Map New forecast layout! Learn more

10-Day Weather Forecast

Advertisements
Track Severe Weather on mobile